KSPS/SPS METAR and TAF weather

Enter ICAO airport designator
Station Type Date Time Source
KSPS METAR 2021/04/17 01:52 UTC NOAA

KSPS 170152Z 36018KT 10SM OVC043 11/07 A3003 RMK AO2 PK WND 01027/0123 SLP166 T01110067


Station Type Date Time Source
KSPS Decoded METAR 2021/04/17 01:52 UTC NOAA

WICHITA FALLS SHEPPARD AFB, TX, United States (KSPS) 33-59N 98-30W 308M
Apr 16, 2021 - 09:52 PM EDT / 2021.04.17 0152 UTC
Wind: from the N (360 degrees) at 21 MPH (18 KT):0
Visibility: 10 mile(s):0
Sky conditions: overcast
Temperature: 52.0 F (11.1 C)
Dew Point: 44.1 F (6.7 C)
Relative Humidity: 74%
Pressure (altimeter): 30.03 in. Hg (1016 hPa)
ob: KSPS 170152Z 36018KT 10SM OVC043 11/07 A3003 RMK AO2 PK WND 01027/0123 SLP166 T01110067
cycle: 2

Station Type Date Time Source
KSPS TAF 2021/04/16 18:33 UTC NOAA

TAF KSPS 161731Z 1618/1718 35009KT 4SM BR OVC004
FM162000 33016G23KT P6SM OVC007
FM170000 35014KT P6SM BKN025
FM171000 35013KT P6SM BKN050

Example: see airport list